Time,TemperatureF,DewpointF,PressureIn,WindDirection,WindDirectionDegrees,WindSpeedMPH,WindSpeedGustMPH,Humidity,HourlyPrecipIn,Conditions,Clouds,dailyrainin,SoftwareType,DateUTC
2013-10-26 14:36:00,49.6,30.8,28.02,South,184,2.2,2.2,48,0.00,,SKC,0.00,VWS V14.00,2013-10-26 21:36:00,
2013-10-26 14:37:00,49.6,30.8,28.02,SSW,201,3.1,3.6,48,0.00,,SKC,0.00,VWS V14.00,2013-10-26 21:37:00,
2013-10-26 14:42:00,49.6,30.2,27.99,South,184,2.2,3.6,47,0.00,,SKC,0.00,VWS V14.00,2013-10-26 21:42:00,
2013-10-26 14:47:00,49.8,30.9,27.99,WSW,244,0.0,2.2,48,0.00,,SKC,0.00,VWS V14.00,2013-10-26 21:47:00,
2013-10-26 14:52:00,50.2,30.2,27.99,SE,140,0.0,4.0,46,0.00,,SKC,0.00,VWS V14.00,2013-10-26 21:52:00,
2013-10-26 14:57:00,50.0,30.0,27.99,South,182,2.7,2.7,46,0.00,,SKC,0.00,VWS V14.00,2013-10-26 21:57:00,
2013-10-26 15:02:00,49.8,28.2,27.99,South,169,3.1,3.1,43,0.00,,SKC,0.00,VWS V14.00,2013-10-26 22:02:00,
2013-10-26 15:06:00,49.8,29.4,27.99,South,181,2.2,2.2,45,0.00,,SKC,0.00,VWS V14.00,2013-10-26 22:06:00,
2013-10-26 15:12:00,50.2,29.7,27.99,SSE,160,2.7,2.7,45,0.00,,SKC,0.00,VWS V14.00,2013-10-26 22:12:00,
2013-10-26 15:16:00,50.2,28.6,27.99,South,174,0.0,3.6,43,0.00,,SKC,0.00,VWS V14.00,2013-10-26 22:16:00,
2013-10-26 15:22:00,50.2,28.6,27.99,South,190,0.0,0.0,43,0.00,,SKC,0.00,VWS V14.00,2013-10-26 22:22:00,
2013-10-26 15:27:00,50.5,29.5,27.99,SW,220,0.0,0.0,44,0.00,,SKC,0.00,VWS V14.00,2013-10-26 22:27:00,
2013-10-26 15:32:00,50.9,29.2,27.99,South,184,0.0,0.0,43,0.00,,SKC,0.00,VWS V14.00,2013-10-26 22:32:00,
2013-10-26 15:37:00,50.7,28.5,27.99,SSE,156,2.7,2.7,42,0.00,,SKC,0.00,VWS V14.00,2013-10-26 22:37:00,
2013-10-26 15:42:00,50.5,28.3,27.99,SSE,157,0.0,0.0,42,0.00,,SKC,0.00,VWS V14.00,2013-10-26 22:42:00,
2013-10-26 15:47:00,50.5,28.3,27.99,SSE,166,0.0,0.0,42,0.00,,SKC,0.00,VWS V14.00,2013-10-26 22:47:00,
2013-10-26 15:52:00,50.7,28.5,27.99,SSE,166,0.0,0.0,42,0.00,,SKC,0.00,VWS V14.00,2013-10-26 22:52:00,
2013-10-26 15:57:00,50.5,28.3,27.99,SSE,166,0.0,0.0,42,0.00,,SKC,0.00,VWS V14.00,2013-10-26 22:57:00,
2013-10-26 16:02:00,50.5,28.3,27.99,SSE,166,0.0,0.0,42,0.00,,SKC,0.00,VWS V14.00,2013-10-26 23:02:00,
2013-10-26 16:07:00,50.4,28.2,27.99,SSE,166,0.0,0.0,42,0.00,,SKC,0.00,VWS V14.00,2013-10-26 23:07:00,
2013-10-26 16:12:00,50.2,28.0,27.96,SSE,166,0.0,0.0,42,0.00,,SKC,0.00,VWS V14.00,2013-10-26 23:12:00,
2013-10-26 16:17:00,50.0,27.8,27.96,SSE,166,0.0,0.0,42,0.00,,SKC,0.00,VWS V14.00,2013-10-26 23:17:00,
2013-10-26 16:22:00,49.6,28.1,27.96,SSE,166,0.0,0.0,43,0.00,,SKC,0.00,VWS V14.00,2013-10-26 23:22:00,
2013-10-26 16:27:00,49.5,27.9,27.96,SSE,166,0.0,0.0,43,0.00,,SKC,0.00,VWS V14.00,2013-10-26 23:27:00,
2013-10-26 16:32:00,49.3,28.3,27.96,SSE,166,0.0,0.0,44,0.00,,SKC,0.00,VWS V14.00,2013-10-26 23:32:00,
2013-10-26 16:37:00,48.9,28.0,27.96,SSE,166,0.0,0.0,44,0.00,,SKC,0.00,VWS V14.00,2013-10-26 23:37:00,
2013-10-26 16:42:00,48.6,27.6,27.96,SSE,166,0.0,0.0,44,0.00,,SKC,0.00,VWS V14.00,2013-10-26 23:42:00,
2013-10-26 16:47:00,48.4,27.5,27.96,SSE,166,0.0,0.0,44,0.00,,SKC,0.00,VWS V14.00,2013-10-26 23:47:00,
2013-10-26 16:52:00,48.4,28.0,27.96,SSE,167,0.0,0.0,45,0.00,,SKC,0.00,VWS V14.00,2013-10-26 23:52:00,
2013-10-26 16:57:00,48.6,28.2,27.96,South,178,0.0,0.0,45,0.00,,SKC,0.00,VWS V14.00,2013-10-26 23:57:00,
2013-10-26 17:02:00,48.6,28.2,27.96,South,178,0.0,0.0,45,0.00,,SKC,0.00,VWS V14.00,2013-10-27 00:02:00,
2013-10-26 17:07:00,48.6,28.2,27.96,South,178,0.0,0.0,45,0.00,,SKC,0.00,VWS V14.00,2013-10-27 00:07:00,
2013-10-26 17:12:00,48.4,28.0,27.96,South,178,0.0,0.0,45,0.00,,SKC,0.00,VWS V14.00,2013-10-27 00:12:00,
2013-10-26 17:17:00,48.0,28.2,27.96,South,178,0.0,0.0,46,0.00,,SKC,0.00,VWS V14.00,2013-10-27 00:17:00,
2013-10-26 17:23:00,47.7,27.9,27.96,South,178,0.0,0.0,46,0.00,,SKC,0.00,VWS V14.00,2013-10-27 00:23:00,
2013-10-26 17:28:00,47.3,28.1,27.94,South,178,0.0,0.0,47,0.00,,SKC,0.00,VWS V14.00,2013-10-27 00:28:00,
2013-10-26 17:32:00,46.9,27.8,27.94,South,178,0.0,0.0,47,0.00,,SKC,0.00,VWS V14.00,2013-10-27 00:32:00,
2013-10-26 17:38:00,46.4,27.3,27.94,South,178,0.0,0.0,47,0.00,,SKC,0.00,VWS V14.00,2013-10-27 00:38:00,
2013-10-26 17:43:00,46.0,27.5,27.94,South,178,0.0,0.0,48,0.00,,SKC,0.00,VWS V14.00,2013-10-27 00:43:00,
2013-10-26 17:48:00,45.5,27.0,27.94,South,178,0.0,0.0,48,0.00,,SKC,0.00,VWS V14.00,2013-10-27 00:48:00,
2013-10-26 17:53:00,45.0,26.5,27.94,South,178,0.0,0.0,48,0.00,,SKC,0.00,VWS V14.00,2013-10-27 00:53:00,
2013-10-26 17:58:00,44.4,26.5,27.94,South,178,0.0,0.0,49,0.00,,SKC,0.00,VWS V14.00,2013-10-27 00:58:00,
2013-10-26 18:03:00,43.7,25.8,27.94,South,178,0.0,0.0,49,0.00,,SKC,0.00,VWS V14.00,2013-10-27 01:03:00,
2013-10-26 18:08:00,43.2,25.3,27.94,South,178,0.0,0.0,49,0.00,,SKC,0.00,VWS V14.00,2013-10-27 01:08:00,
2013-10-26 18:13:00,42.8,25.5,27.94,South,178,0.0,0.0,50,0.00,,SKC,0.00,VWS V14.00,2013-10-27 01:13:00,
2013-10-26 18:18:00,42.3,25.0,27.94,South,178,0.0,0.0,50,0.00,,SKC,0.00,VWS V14.00,2013-10-27 01:18:00,
2013-10-26 18:23:00,41.7,24.5,27.94,South,178,0.0,0.0,50,0.00,,SKC,0.00,VWS V14.00,2013-10-27 01:23:00,
2013-10-26 18:28:00,41.2,24.4,27.94,South,178,0.0,0.0,51,0.00,,SKC,0.00,VWS V14.00,2013-10-27 01:28:00,
2013-10-26 18:33:00,40.6,23.9,27.94,South,178,0.0,0.0,51,0.00,,SKC,0.00,VWS V14.00,2013-10-27 01:33:00,
2013-10-26 18:38:00,40.3,23.6,27.94,South,178,0.0,0.0,51,0.00,,SKC,0.00,VWS V14.00,2013-10-27 01:38:00,
2013-10-26 18:43:00,39.7,23.6,27.94,South,178,0.0,0.0,52,0.00,,SKC,0.00,VWS V14.00,2013-10-27 01:43:00,
2013-10-26 18:48:00,39.4,23.2,27.94,South,178,0.0,0.0,52,0.00,,SKC,0.00,VWS V14.00,2013-10-27 01:48:00,
2013-10-26 18:53:00,39.0,23.8,27.94,South,178,0.0,0.0,54,0.00,,SKC,0.00,VWS V14.00,2013-10-27 01:53:00,
2013-10-26 18:58:00,38.7,23.5,27.94,South,178,0.0,0.0,54,0.00,,SKC,0.00,VWS V14.00,2013-10-27 01:58:00,
2013-10-26 19:03:00,37.9,22.4,27.94,South,178,0.0,0.0,53,0.00,,SKC,0.00,VWS V14.00,2013-10-27 02:03:00,
2013-10-26 19:08:00,37.4,21.9,27.94,South,178,0.0,0.0,53,0.00,,SKC,0.00,VWS V14.00,2013-10-27 02:08:00,
2013-10-26 19:13:00,36.9,21.3,27.94,South,178,0.0,0.0,53,0.00,,SKC,0.00,VWS V14.00,2013-10-27 02:13:00,
2013-10-26 19:18:00,36.7,21.6,27.94,South,178,0.0,0.0,54,0.00,,SKC,0.00,VWS V14.00,2013-10-27 02:18:00,
2013-10-26 19:23:00,36.7,21.6,27.94,South,178,0.0,0.0,54,0.00,,SKC,0.00,VWS V14.00,2013-10-27 02:23:00,
2013-10-26 19:29:00,36.3,21.7,27.94,South,178,0.0,0.0,55,0.00,,SKC,0.00,VWS V14.00,2013-10-27 02:29:00,
2013-10-26 19:34:00,35.8,21.2,27.94,South,178,0.0,0.0,55,0.00,,SKC,0.00,VWS V14.00,2013-10-27 02:34:00,
2013-10-26 19:39:00,35.4,20.9,27.94,South,178,0.0,0.0,55,0.00,,SKC,0.00,VWS V14.00,2013-10-27 02:39:00,
2013-10-26 19:44:00,35.1,20.5,27.94,South,178,0.0,0.0,55,0.00,,SKC,0.00,VWS V14.00,2013-10-27 02:44:00,
2013-10-26 19:49:00,34.9,20.8,27.94,South,178,0.0,0.0,56,0.00,,SKC,0.00,VWS V14.00,2013-10-27 02:49:00,
2013-10-26 19:54:00,34.5,20.5,27.94,South,178,0.0,0.0,56,0.00,,SKC,0.00,VWS V14.00,2013-10-27 02:54:00,
2013-10-26 19:59:00,34.0,20.0,27.91,South,178,0.0,0.0,56,0.00,,SKC,0.00,VWS V14.00,2013-10-27 02:59:00,
2013-10-26 20:04:00,33.6,19.6,27.91,South,178,0.0,0.0,56,0.00,,SKC,0.00,VWS V14.00,2013-10-27 03:04:00,
2013-10-26 20:09:00,33.3,19.3,27.91,South,178,0.0,0.0,56,0.00,,SKC,0.00,VWS V14.00,2013-10-27 03:09:00,
2013-10-26 20:14:00,32.9,18.9,27.91,South,178,0.0,0.0,56,0.00,,SKC,0.00,VWS V14.00,2013-10-27 03:14:00,
2013-10-26 20:19:00,32.9,19.4,27.91,South,178,0.0,0.0,57,0.00,,SKC,0.00,VWS V14.00,2013-10-27 03:19:00,
2013-10-26 20:24:00,32.7,19.2,27.91,South,178,0.0,0.0,57,0.00,,SKC,0.00,VWS V14.00,2013-10-27 03:24:00,
2013-10-26 20:29:00,32.5,19.4,27.91,South,178,0.0,0.0,58,0.00,,SKC,0.00,VWS V14.00,2013-10-27 03:29:00,
2013-10-26 20:34:00,32.4,19.2,27.91,South,178,0.0,0.0,58,0.00,,SKC,0.00,VWS V14.00,2013-10-27 03:34:00,
2013-10-26 20:39:00,32.0,18.9,27.91,South,178,0.0,0.0,58,0.00,,SKC,0.00,VWS V14.00,2013-10-27 03:39:00,
2013-10-26 20:44:00,31.6,18.6,27.91,South,178,0.0,0.0,58,0.00,,SKC,0.00,VWS V14.00,2013-10-27 03:44:00,
2013-10-26 20:49:00,31.3,18.6,27.91,South,178,0.0,0.0,59,0.00,,SKC,0.00,VWS V14.00,2013-10-27 03:49:00,
2013-10-26 20:54:00,31.1,18.5,27.91,South,178,0.0,0.0,59,0.00,,SKC,0.00,VWS V14.00,2013-10-27 03:54:00,
2013-10-26 20:59:00,31.1,18.9,27.91,South,178,0.0,0.0,60,0.00,,SKC,0.00,VWS V14.00,2013-10-27 03:59:00,
2013-10-26 21:01:00,31.1,18.9,27.91,South,178,0.0,0.0,60,0.00,,SKC,0.00,VWS V14.00,2013-10-27 04:01:00,
2013-10-26 21:02:00,31.1,18.9,27.91,South,178,0.0,0.0,60,0.00,,SKC,0.00,VWS V14.00,2013-10-27 04:02:00,
2013-10-26 21:04:00,30.9,18.7,27.91,South,178,0.0,0.0,60,0.00,,SKC,0.00,VWS V14.00,2013-10-27 04:04:00,
2013-10-26 21:09:00,30.9,18.7,27.91,South,178,0.0,0.0,60,0.00,,SKC,0.00,VWS V14.00,2013-10-27 04:09:00,
2013-10-26 21:14:00,30.9,19.1,27.91,South,178,0.0,0.0,61,0.00,,SKC,0.00,VWS V14.00,2013-10-27 04:14:00,
2013-10-26 21:19:00,30.9,19.1,27.91,South,178,0.0,0.0,61,0.00,,SKC,0.00,VWS V14.00,2013-10-27 04:19:00,
2013-10-26 21:24:00,31.1,19.2,27.91,South,178,0.0,0.0,61,0.00,,SKC,0.00,VWS V14.00,2013-10-27 04:24:00,
2013-10-26 21:29:00,31.1,19.6,27.88,South,178,0.0,0.0,62,0.00,,SKC,0.00,VWS V14.00,2013-10-27 04:29:00,
2013-10-26 21:34:00,31.1,19.6,27.88,South,178,0.0,0.0,62,0.00,,SKC,0.00,VWS V14.00,2013-10-27 04:34:00,
2013-10-26 21:39:00,31.1,19.6,27.88,South,178,0.0,0.0,62,0.00,,SKC,0.00,VWS V14.00,2013-10-27 04:39:00,
2013-10-26 21:44:00,31.1,20.0,27.88,South,178,0.0,0.0,63,0.00,,SKC,0.00,VWS V14.00,2013-10-27 04:44:00,
2013-10-26 21:49:00,31.1,20.0,27.88,South,178,0.0,0.0,63,0.00,,SKC,0.00,VWS V14.00,2013-10-27 04:49:00,
2013-10-26 21:54:00,31.1,20.0,27.88,South,178,0.0,0.0,63,0.00,,SKC,0.00,VWS V14.00,2013-10-27 04:54:00,
2013-10-26 21:59:00,31.1,20.4,27.88,South,178,0.0,0.0,64,0.00,,SKC,0.00,VWS V14.00,2013-10-27 04:59:00,
2013-10-26 22:04:00,31.1,20.4,27.88,South,178,0.0,0.0,64,0.00,,SKC,0.00,VWS V14.00,2013-10-27 05:04:00,
2013-10-26 22:09:00,30.9,20.2,27.88,South,178,0.0,0.0,64,0.00,,SKC,0.00,VWS V14.00,2013-10-27 05:09:00,
2013-10-26 22:14:00,30.9,20.5,27.88,South,178,0.0,0.0,65,0.00,,SKC,0.00,VWS V14.00,2013-10-27 05:14:00,
2013-10-26 22:19:00,30.7,20.4,27.88,South,178,0.0,0.0,65,0.00,,SKC,0.00,VWS V14.00,2013-10-27 05:19:00,
2013-10-26 22:24:00,30.6,20.2,27.88,South,178,0.0,0.0,65,0.00,,SKC,0.00,VWS V14.00,2013-10-27 05:24:00,
2013-10-26 22:29:00,30.6,20.6,27.88,South,178,0.0,0.0,66,0.00,,SKC,0.00,VWS V14.00,2013-10-27 05:29:00,
2013-10-26 22:34:00,30.9,20.9,27.88,South,178,0.0,0.0,66,0.00,,SKC,0.00,VWS V14.00,2013-10-27 05:34:00,
2013-10-26 22:39:00,31.1,21.4,27.88,South,178,0.0,0.0,67,0.00,,SKC,0.00,VWS V14.00,2013-10-27 05:39:00,
2013-10-26 22:44:00,31.5,21.8,27.85,South,178,0.0,0.0,67,0.00,,SKC,0.00,VWS V14.00,2013-10-27 05:44:00,
2013-10-26 22:49:00,31.6,22.3,27.85,South,178,0.0,0.0,68,0.00,,SKC,0.00,VWS V14.00,2013-10-27 05:49:00,
2013-10-26 22:54:00,31.8,22.5,27.85,NNW,330,0.0,0.0,68,0.00,,SKC,0.00,VWS V14.00,2013-10-27 05:54:00,
2013-10-26 22:59:00,31.5,22.1,27.85,NNW,331,0.0,0.0,68,0.00,,SKC,0.00,VWS V14.00,2013-10-27 05:59:00,
2013-10-26 23:04:00,31.1,21.8,27.85,NNW,331,0.0,0.0,68,0.00,,SKC,0.00,VWS V14.00,2013-10-27 06:04:00,
2013-10-26 23:09:00,30.9,21.6,27.85,NNW,331,0.0,0.0,68,0.00,,SKC,0.00,VWS V14.00,2013-10-27 06:09:00,
2013-10-26 23:15:00,30.7,21.8,27.85,NNW,331,0.0,0.0,69,0.00,,SKC,0.00,VWS V14.00,2013-10-27 06:15:00,
2013-10-26 23:20:00,30.7,21.8,27.85,NNW,331,0.0,0.0,69,0.00,,SKC,0.00,VWS V14.00,2013-10-27 06:20:00,
2013-10-26 23:25:00,30.7,21.8,27.85,NNW,331,0.0,0.0,69,0.00,,SKC,0.00,VWS V14.00,2013-10-27 06:25:00,
2013-10-26 23:30:00,30.7,21.8,27.85,NNW,331,0.0,0.0,69,0.00,,SKC,0.00,VWS V14.00,2013-10-27 06:30:00,
2013-10-26 23:35:00,30.7,21.8,27.85,NNW,331,0.0,0.0,69,0.00,,SKC,0.00,VWS V14.00,2013-10-27 06:35:00,
2013-10-26 23:40:00,30.9,22.0,27.85,NNW,331,0.0,0.0,69,0.00,,SKC,0.00,VWS V14.00,2013-10-27 06:40:00,
2013-10-26 23:45:00,30.9,22.3,27.85,NNW,331,0.0,0.0,70,0.00,,SKC,0.00,VWS V14.00,2013-10-27 06:45:00,
2013-10-26 23:50:00,31.1,22.5,27.85,NNW,331,0.0,0.0,70,0.00,,SKC,0.00,VWS V14.00,2013-10-27 06:50:00,
2013-10-26 23:55:00,31.3,22.6,27.85,NNW,331,0.0,0.0,70,0.00,,SKC,0.00,VWS V14.00,2013-10-27 06:55:00,